Погода Конгсбергна 2 недели

Бускеруд, Норвегия

17 - 30 июля
  • 17июля
    Сегодня
    +12°
    +19°
    Пасмурно, небольшой дождь
    ВремяПогодаТемператураВлажностьДавлениеВетер, м/сВероятность осадков
    02:00Пасмурно, небольшой дождь+14°C99 %741 мм0.9 м/с76 %
    05:00Пасмурно, небольшой дождь+13°C99 %741 мм0.7 м/с91 %
    08:00Пасмурно, небольшой дождь+14°C95 %740 мм1.1 м/с94 %
    11:00Пасмурно, небольшой дождь+16°C79 %740 мм1.4 м/с79 %
    14:00Пасмурно, небольшой дождь+18°C76 %740 мм1.1 м/с60 %
    17:00Пасмурно, сплошная облачность+18°C70 %740 мм1.4 м/с34 %
    20:00Облачно с прояснениями+19°C75 %741 мм1.2 м/с10 %
    23:00Облачно с прояснениями+16°C86 %741 мм1.0 м/с3 %
  • 18июля
    Четверг
    +11°
    +24°
    Практически безоблачно
    ВремяПогодаТемператураВлажностьДавлениеВетер, м/сВероятность осадков
    02:00Небольшая облачность+14°C85 %742 мм1.1 м/с2 %
    05:00Ясно и безоблачно+12°C88 %742 мм0.9 м/с2 %
    08:00Ясно и безоблачно+16°C72 %743 мм1.1 м/с2 %
    11:00Ясно и безоблачно+21°C54 %744 мм1.6 м/с2 %
    14:00Практически безоблачно+23°C45 %744 мм1.9 м/с8 %
    17:00Практически безоблачно+23°C36 %744 мм2.4 м/с3 %
    20:00Пасмурно, сплошная облачность+21°C53 %744 мм1.6 м/с2 %
    23:00Ясно и безоблачно+16°C70 %745 мм1.0 м/с2 %
  • 19июля
    Пятница
    +12°
    +25°
    Практически безоблачно
    ВремяПогодаТемператураВлажностьДавлениеВетер, м/сВероятность осадков
    02:00Облачно с прояснениями+14°C80 %746 мм1.1 м/с2 %
    05:00Небольшая облачность+12°C87 %746 мм0.8 м/с2 %
    08:00Облачно с прояснениями+16°C71 %747 мм0.9 м/с2 %
    11:00Ясно и безоблачно+20°C56 %747 мм1.4 м/с5 %
    14:00Практически безоблачно+24°C45 %746 мм1.7 м/с18 %
    17:00Небольшая облачность+24°C43 %745 мм2.0 м/с10 %
    20:00Практически безоблачно+22°C67 %745 мм1.4 м/с2 %
    23:00Облачно с прояснениями+17°C89 %745 мм0.8 м/с2 %
  • 20июля
    Суббота
    +11°
    +25°
    Небольшая облачность
    ВремяПогодаТемператураВлажностьДавлениеВетер, м/сВероятность осадков
    02:00Облачно с прояснениями+15°C92 %744 мм0.8 м/с2 %
    05:00Практически безоблачно+13°C90 %744 мм0.5 м/с2 %
    08:00Облачно с прояснениями+17°C87 %744 мм0.8 м/с2 %
    11:00Небольшая облачность+22°C71 %744 мм1.7 м/с2 %
    14:00Небольшая облачность+24°C56 %743 мм2.1 м/с18 %
    17:00Небольшая облачность+24°C54 %742 мм2.5 м/с23 %
    20:00Ясно и безоблачно+22°C68 %742 мм1.5 м/с6 %
    23:00Ясно и безоблачно+17°C88 %742 мм0.8 м/с2 %
  • 21июля
    Воскресенье
    +15°
    +24°
    Практически безоблачно
    ВремяПогодаТемператураВлажностьДавлениеВетер, м/сВероятность осадков
    02:00Ясно и безоблачно+15°C91 %742 мм0.7 м/с2 %
    05:00Ясно и безоблачно+12°C92 %741 мм0.5 м/с5 %
    08:00Ясно и безоблачно+17°C81 %741 мм0.9 м/с8 %
    11:00Ясно и безоблачно+22°C63 %740 мм2.1 м/с18 %
    14:00Практически безоблачно+24°C53 %739 мм2.5 м/с31 %
    17:00Практически безоблачно+24°C52 %738 мм2.5 м/с31 %
    20:00Ясно и безоблачно+22°C64 %738 мм1.7 м/с35 %
    23:00Небольшая облачность+19°C79 %737 мм0.9 м/с37 %
Мы используем cookies
Соглашаюсь